sensor_id;sensor_type;location;lat;lon;timestamp;pressure;altitude;pressure_sealevel;temperature;humidity
72857;BME280;62742;52.136;4.500;2023-05-07T00:00:47;101677.88;;;13.97;91.59
72857;BME280;62742;52.136;4.500;2023-05-07T00:03:13;101676.97;;;13.98;91.13
72857;BME280;62742;52.136;4.500;2023-05-07T00:05:40;101676.06;;;13.99;91.54
72857;BME280;62742;52.136;4.500;2023-05-07T00:08:07;101675.16;;;14.00;91.66
72857;BME280;62742;52.136;4.500;2023-05-07T00:10:33;101684.88;;;14.00;91.05
72857;BME280;62742;52.136;4.500;2023-05-07T00:12:59;101692.78;;;14.00;91.56
72857;BME280;62742;52.136;4.500;2023-05-07T00:15:26;101693.72;;;13.99;91.72
72857;BME280;62742;52.136;4.500;2023-05-07T00:17:53;101698.09;;;13.98;91.81
72857;BME280;62742;52.136;4.500;2023-05-07T00:20:19;101697.25;;;13.98;91.29
72857;BME280;62742;52.136;4.500;2023-05-07T00:22:45;101699.88;;;13.98;91.75
72857;BME280;62742;52.136;4.500;2023-05-07T00:25:11;101702.56;;;13.96;91.50
72857;BME280;62742;52.136;4.500;2023-05-07T00:27:38;101692.84;;;13.97;91.49
72857;BME280;62742;52.136;4.500;2023-05-07T00:30:04;101692.94;;;13.92;91.72
72857;BME280;62742;52.136;4.500;2023-05-07T00:32:31;101685.00;;;13.92;91.72
72857;BME280;62742;52.136;4.500;2023-05-07T00:34:58;101693.81;;;13.91;91.48
72857;BME280;62742;52.136;4.500;2023-05-07T00:37:24;101689.41;;;13.92;92.01
72857;BME280;62742;52.136;4.500;2023-05-07T00:39:50;101684.22;;;13.87;92.21
72857;BME280;62742;52.136;4.500;2023-05-07T00:42:17;101685.13;;;13.84;92.09
72857;BME280;62742;52.136;4.500;2023-05-07T00:44:43;101689.56;;;13.81;92.08
72857;BME280;62742;52.136;4.500;2023-05-07T00:47:10;101682.63;;;13.75;91.91
72857;BME280;62742;52.136;4.500;2023-05-07T00:49:43;101689.72;;;13.72;91.64
72857;BME280;62742;52.136;4.500;2023-05-07T00:52:11;101691.50;;;13.70;91.65
72857;BME280;62742;52.136;4.500;2023-05-07T00:54:40;101681.72;;;13.75;91.10
72857;BME280;62742;52.136;4.500;2023-05-07T00:57:07;101684.13;;;13.92;91.38
72857;BME280;62742;52.136;4.500;2023-05-07T00:59:35;101684.25;;;13.84;90.74
72857;BME280;62742;52.136;4.500;2023-05-07T01:02:01;101686.03;;;13.83;91.59
72857;BME280;62742;52.136;4.500;2023-05-07T01:04:27;101678.16;;;13.79;92.15
72857;BME280;62742;52.136;4.500;2023-05-07T01:06:54;101686.97;;;13.78;92.67
72857;BME280;62742;52.136;4.500;2023-05-07T01:09:23;101682.59;;;13.77;92.43
72857;BME280;62742;52.136;4.500;2023-05-07T01:11:50;101678.16;;;13.79;92.72
72857;BME280;62742;52.136;4.500;2023-05-07T01:14:18;101683.50;;;13.76;92.00
72857;BME280;62742;52.136;4.500;2023-05-07T01:16:44;101676.41;;;13.78;92.07
72857;BME280;62742;52.136;4.500;2023-05-07T01:19:11;101675.50;;;13.80;93.32
72857;BME280;62742;52.136;4.500;2023-05-07T01:21:40;101670.22;;;13.80;93.31
72857;BME280;62742;52.136;4.500;2023-05-07T01:24:12;101675.56;;;13.76;93.80
72857;BME280;62742;52.136;4.500;2023-05-07T01:26:38;101671.25;;;13.72;94.76
72857;BME280;62742;52.136;4.500;2023-05-07T01:29:05;101667.72;;;13.70;96.09
72857;BME280;62742;52.136;4.500;2023-05-07T01:31:32;101663.41;;;13.65;95.34
72857;BME280;62742;52.136;4.500;2023-05-07T01:34:00;101674.88;;;13.63;94.10
72857;BME280;62742;52.136;4.500;2023-05-07T01:36:28;101662.59;;;13.60;93.30
72857;BME280;62742;52.136;4.500;2023-05-07T01:38:56;101667.91;;;13.57;93.66
72857;BME280;62742;52.136;4.500;2023-05-07T01:41:24;101663.59;;;13.53;92.75
72857;BME280;62742;52.136;4.500;2023-05-07T01:43:51;101666.28;;;13.49;92.47
72857;BME280;62742;52.136;4.500;2023-05-07T01:46:19;101667.25;;;13.43;92.08
72857;BME280;62742;52.136;4.500;2023-05-07T01:48:46;101670.00;;;13.34;92.00
72857;BME280;62742;52.136;4.500;2023-05-07T01:51:13;101667.38;;;13.34;92.29
72857;BME280;62742;52.136;4.500;2023-05-07T01:53:39;101669.94;;;13.38;91.54
72857;BME280;62742;52.136;4.500;2023-05-07T01:56:06;101664.72;;;13.34;92.56
72857;BME280;62742;52.136;4.500;2023-05-07T01:58:33;101669.16;;;13.30;92.53
72857;BME280;62742;52.136;4.500;2023-05-07T02:00:59;101668.31;;;13.26;92.70
72857;BME280;62742;52.136;4.500;2023-05-07T02:03:26;101664.78;;;13.27;93.12
72857;BME280;62742;52.136;4.500;2023-05-07T02:05:52;101668.28;;;13.29;93.04
72857;BME280;62742;52.136;4.500;2023-05-07T02:08:18;101670.00;;;13.34;93.11
72857;BME280;62742;52.136;4.500;2023-05-07T02:10:44;101675.25;;;13.37;93.42
72857;BME280;62742;52.136;4.500;2023-05-07T02:13:10;101670.78;;;13.40;93.95
72857;BME280;62742;52.136;4.500;2023-05-07T02:15:36;101667.28;;;13.40;93.93
72857;BME280;62742;52.136;4.500;2023-05-07T02:18:04;101672.59;;;13.38;93.12
72857;BME280;62742;52.136;4.500;2023-05-07T02:20:35;101669.91;;;13.41;93.81
72857;BME280;62742;52.136;4.500;2023-05-07T02:23:01;101678.66;;;13.45;94.01
72857;BME280;62742;52.136;4.500;2023-05-07T02:25:27;101676.88;;;13.45;94.50
72857;BME280;62742;52.136;4.500;2023-05-07T02:27:54;101671.59;;;13.45;94.65
72857;BME280;62742;52.136;4.500;2023-05-07T02:30:21;101668.09;;;13.45;94.61
72857;BME280;62742;52.136;4.500;2023-05-07T02:32:47;101671.72;;;13.39;93.36
72857;BME280;62742;52.136;4.500;2023-05-07T02:35:13;101669.91;;;13.41;93.42
72857;BME280;62742;52.136;4.500;2023-05-07T02:37:39;101674.25;;;13.44;94.06
72857;BME280;62742;52.136;4.500;2023-05-07T02:40:06;101672.56;;;13.41;93.39
72857;BME280;62742;52.136;4.500;2023-05-07T02:42:32;101676.03;;;13.45;94.13
72857;BME280;62742;52.136;4.500;2023-05-07T02:44:59;101674.34;;;13.41;93.03
72857;BME280;62742;52.136;4.500;2023-05-07T02:47:26;101677.81;;;13.43;94.26
72857;BME280;62742;52.136;4.500;2023-05-07T02:49:54;101676.09;;;13.39;93.13
72857;BME280;62742;52.136;4.500;2023-05-07T02:52:21;101681.34;;;13.42;93.01
72857;BME280;62742;52.136;4.500;2023-05-07T02:54:47;101679.56;;;13.42;92.67
72857;BME280;62742;52.136;4.500;2023-05-07T02:57:14;101677.84;;;13.41;92.78
72857;BME280;62742;52.136;4.500;2023-05-07T02:59:41;101684.81;;;13.45;93.44
72857;BME280;62742;52.136;4.500;2023-05-07T03:02:07;101677.72;;;13.47;95.35
72857;BME280;62742;52.136;4.500;2023-05-07T03:04:33;101676.00;;;13.46;96.27
72857;BME280;62742;52.136;4.500;2023-05-07T03:07:00;101680.47;;;13.43;95.23
72857;BME280;62742;52.136;4.500;2023-05-07T03:09:26;101680.50;;;13.40;94.63
72857;BME280;62742;52.136;4.500;2023-05-07T03:11:52;101677.78;;;13.46;94.86
72857;BME280;62742;52.136;4.500;2023-05-07T03:14:18;101675.13;;;13.46;93.71
72857;BME280;62742;52.136;4.500;2023-05-07T03:16:44;101671.53;;;13.50;94.55
72857;BME280;62742;52.136;4.500;2023-05-07T03:19:11;101677.69;;;13.52;96.03
72857;BME280;62742;52.136;4.500;2023-05-07T03:21:37;101671.53;;;13.50;95.78
72857;BME280;62742;52.136;4.500;2023-05-07T03:24:03;101673.31;;;13.50;95.32
72857;BME280;62742;52.136;4.500;2023-05-07T03:26:29;101671.50;;;13.53;96.27
72857;BME280;62742;52.136;4.500;2023-05-07T03:28:56;101672.44;;;13.47;94.81
72857;BME280;62742;52.136;4.500;2023-05-07T03:31:22;101668.88;;;13.52;95.02
72857;BME280;62742;52.136;4.500;2023-05-07T03:33:52;101661.84;;;13.52;95.72
72857;BME280;62742;52.136;4.500;2023-05-07T03:36:23;101674.16;;;13.52;95.09
72857;BME280;62742;52.136;4.500;2023-05-07T03:38:49;101666.19;;;13.56;96.38
72857;BME280;62742;52.136;4.500;2023-05-07T03:41:16;101665.31;;;13.54;96.10
72857;BME280;62742;52.136;4.500;2023-05-07T03:43:42;101660.94;;;13.53;96.42
72857;BME280;62742;52.136;4.500;2023-05-07T03:46:08;101659.16;;;13.54;96.35
72857;BME280;62742;52.136;4.500;2023-05-07T03:48:34;101664.47;;;13.52;96.47
72857;BME280;62742;52.136;4.500;2023-05-07T03:51:01;101663.59;;;13.52;95.56
72857;BME280;62742;52.136;4.500;2023-05-07T03:53:27;101662.75;;;13.51;95.68
72857;BME280;62742;52.136;4.500;2023-05-07T03:55:53;101669.72;;;13.55;97.55
72857;BME280;62742;52.136;4.500;2023-05-07T03:58:19;101674.13;;;13.56;97.59
72857;BME280;62742;52.136;4.500;2023-05-07T04:00:45;101678.50;;;13.56;98.00
72857;BME280;62742;52.136;4.500;2023-05-07T04:03:13;101677.69;;;13.51;96.31
72857;BME280;62742;52.136;4.500;2023-05-07T04:05:40;101677.66;;;13.54;97.02
72857;BME280;62742;52.136;4.500;2023-05-07T04:08:06;101684.69;;;13.56;97.51
72857;BME280;62742;52.136;4.500;2023-05-07T04:10:32;101684.72;;;13.53;96.83
72857;BME280;62742;52.136;4.500;2023-05-07T04:12:59;101684.69;;;13.56;96.98
72857;BME280;62742;52.136;4.500;2023-05-07T04:15:25;101683.78;;;13.56;96.55
72857;BME280;62742;52.136;4.500;2023-05-07T04:17:51;101682.91;;;13.55;95.66
72857;BME280;62742;52.136;4.500;2023-05-07T04:20:17;101692.50;;;13.62;96.66
72857;BME280;62742;52.136;4.500;2023-05-07T04:22:43;101689.00;;;13.60;97.10
72857;BME280;62742;52.136;4.500;2023-05-07T04:25:10;101686.34;;;13.62;97.95
72857;BME280;62742;52.136;4.500;2023-05-07T04:27:36;101688.13;;;13.61;97.98
72857;BME280;62742;52.136;4.500;2023-05-07T04:30:03;101693.41;;;13.60;98.05
72857;BME280;62742;52.136;4.500;2023-05-07T04:32:30;101687.22;;;13.62;98.02
72857;BME280;62742;52.136;4.500;2023-05-07T04:34:56;101688.13;;;13.61;98.44
72857;BME280;62742;52.136;4.500;2023-05-07T04:37:22;101685.47;;;13.61;99.29
72857;BME280;62742;52.136;4.500;2023-05-07T04:39:48;101694.25;;;13.63;99.74
72857;BME280;62742;52.136;4.500;2023-05-07T04:42:15;101684.56;;;13.62;99.60
72857;BME280;62742;52.136;4.500;2023-05-07T04:44:43;101682.84;;;13.60;98.82
72857;BME280;62742;52.136;4.500;2023-05-07T04:47:09;101688.97;;;13.63;99.27
72857;BME280;62742;52.136;4.500;2023-05-07T04:49:36;101696.84;;;13.67;99.41
72857;BME280;62742;52.136;4.500;2023-05-07T04:52:03;101696.88;;;13.65;98.32
72857;BME280;62742;52.136;4.500;2023-05-07T04:54:30;101693.28;;;13.68;98.11
72857;BME280;62742;52.136;4.500;2023-05-07T04:56:56;101693.25;;;13.72;98.80
72857;BME280;62742;52.136;4.500;2023-05-07T04:59:22;101691.47;;;13.73;98.14
72857;BME280;62742;52.136;4.500;2023-05-07T05:01:48;101689.66;;;13.75;98.39
72857;BME280;62742;52.136;4.500;2023-05-07T05:04:15;101692.25;;;13.79;99.52
72857;BME280;62742;52.136;4.500;2023-05-07T05:06:41;101694.06;;;13.76;98.84
72857;BME280;62742;52.136;4.500;2023-05-07T05:09:07;101701.97;;;13.77;97.19
72857;BME280;62742;52.136;4.500;2023-05-07T05:11:33;101705.38;;;13.86;98.01
72857;BME280;62742;52.136;4.500;2023-05-07T05:14:00;101703.53;;;13.91;99.32
72857;BME280;62742;52.136;4.500;2023-05-07T05:16:26;101707.91;;;13.90;99.34
72857;BME280;62742;52.136;4.500;2023-05-07T05:18:52;101705.16;;;13.98;100.00
72857;BME280;62742;52.136;4.500;2023-05-07T05:21:20;101703.38;;;13.98;100.00
72857;BME280;62742;52.136;4.500;2023-05-07T05:23:46;101699.81;;;14.02;100.00
72857;BME280;62742;52.136;4.500;2023-05-07T05:26:13;101711.22;;;14.05;100.00
72857;BME280;62742;52.136;4.500;2023-05-07T05:28:39;101706.75;;;14.08;100.00
72857;BME280;62742;52.136;4.500;2023-05-07T05:31:05;101715.50;;;14.13;100.00
72857;BME280;62742;52.136;4.500;2023-05-07T05:33:32;101715.44;;;14.18;100.00
72857;BME280;62742;52.136;4.500;2023-05-07T05:35:58;101705.63;;;14.25;100.00
72857;BME280;62742;52.136;4.500;2023-05-07T05:38:24;101716.16;;;14.26;100.00
72857;BME280;62742;52.136;4.500;2023-05-07T05:40:51;101714.28;;;14.31;100.00
72857;BME280;62742;52.136;4.500;2023-05-07T05:43:17;101712.53;;;14.33;100.00
72857;BME280;62742;52.136;4.500;2023-05-07T05:45:43;101721.25;;;14.38;100.00
72857;BME280;62742;52.136;4.500;2023-05-07T05:48:10;101725.59;;;14.41;100.00
72857;BME280;62742;52.136;4.500;2023-05-07T05:50:36;101722.00;;;14.47;100.00
72857;BME280;62742;52.136;4.500;2023-05-07T05:53:02;101726.22;;;14.57;100.00
72857;BME280;62742;52.136;4.500;2023-05-07T05:55:29;101718.09;;;14.69;100.00
72857;BME280;62742;52.136;4.500;2023-05-07T05:57:55;101722.78;;;15.00;98.35
72857;BME280;62742;52.136;4.500;2023-05-07T06:00:22;101725.22;;;15.11;97.85
72857;BME280;62742;52.136;4.500;2023-05-07T06:02:48;101725.69;;;15.30;96.28
72857;BME280;62742;52.136;4.500;2023-05-07T06:05:15;101719.75;;;15.20;96.81
72857;BME280;62742;52.136;4.500;2023-05-07T06:07:41;101729.25;;;15.30;94.96
72857;BME280;62742;52.136;4.500;2023-05-07T06:10:07;101730.84;;;15.38;96.15
72857;BME280;62742;52.136;4.500;2023-05-07T06:12:33;101722.78;;;15.42;96.78
72857;BME280;62742;52.136;4.500;2023-05-07T06:15:00;101726.91;;;15.56;95.62
72857;BME280;62742;52.136;4.500;2023-05-07T06:17:27;101725.78;;;15.66;95.79
72857;BME280;62742;52.136;4.500;2023-05-07T06:19:53;101725.22;;;15.94;93.17
72857;BME280;62742;52.136;4.500;2023-05-07T06:22:19;101728.00;;;16.23;93.71
72857;BME280;62742;52.136;4.500;2023-05-07T06:24:45;101730.28;;;16.72;94.44
72857;BME280;62742;52.136;4.500;2023-05-07T06:27:12;101731.50;;;17.54;90.42
72857;BME280;62742;52.136;4.500;2023-05-07T06:29:38;101736.00;;;17.82;83.88
72857;BME280;62742;52.136;4.500;2023-05-07T06:32:07;101734.25;;;17.81;84.51
72857;BME280;62742;52.136;4.500;2023-05-07T06:34:37;101726.50;;;18.55;81.21
72857;BME280;62742;52.136;4.500;2023-05-07T06:37:04;101725.13;;;18.43;79.75
72857;BME280;62742;52.136;4.500;2023-05-07T06:39:30;101725.81;;;18.49;81.16
72857;BME280;62742;52.136;4.500;2023-05-07T06:41:57;101733.25;;;18.65;80.07
72857;BME280;62742;52.136;4.500;2023-05-07T06:44:23;101738.38;;;18.71;82.15
72857;BME280;62742;52.136;4.500;2023-05-07T06:46:50;101743.91;;;18.65;82.42
72857;BME280;62742;52.136;4.500;2023-05-07T06:49:16;101740.53;;;18.60;81.61
72857;BME280;62742;52.136;4.500;2023-05-07T06:51:43;101732.34;;;18.14;82.16
72857;BME280;62742;52.136;4.500;2023-05-07T06:54:09;101744.53;;;17.93;83.91
72857;BME280;62742;52.136;4.500;2023-05-07T06:56:35;101736.44;;;17.96;85.37
72857;BME280;62742;52.136;4.500;2023-05-07T06:59:02;101733.31;;;18.38;84.63
72857;BME280;62742;52.136;4.500;2023-05-07T07:01:28;101732.22;;;19.43;81.80
72857;BME280;62742;52.136;4.500;2023-05-07T07:03:55;101731.66;;;20.03;76.80
72857;BME280;62742;52.136;4.500;2023-05-07T07:06:21;101728.25;;;20.21;74.57
72857;BME280;62742;52.136;4.500;2023-05-07T07:08:47;101719.13;;;20.47;73.08
72857;BME280;62742;52.136;4.500;2023-05-07T07:11:13;101725.22;;;20.71;72.01
72857;BME280;62742;52.136;4.500;2023-05-07T07:13:41;101725.41;;;21.27;71.32
72857;BME280;62742;52.136;4.500;2023-05-07T07:16:08;101731.25;;;21.56;69.23
72857;BME280;62742;52.136;4.500;2023-05-07T07:18:34;101733.19;;;21.71;68.68
72857;BME280;62742;52.136;4.500;2023-05-07T07:21:01;101725.09;;;21.33;67.60
72857;BME280;62742;52.136;4.500;2023-05-07T07:23:27;101723.81;;;20.83;69.14
72857;BME280;62742;52.136;4.500;2023-05-07T07:25:53;101724.16;;;20.76;69.16
72857;BME280;62742;52.136;4.500;2023-05-07T07:28:20;101728.94;;;21.08;69.01
72857;BME280;62742;52.136;4.500;2023-05-07T07:30:47;101724.63;;;21.44;67.95
72857;BME280;62742;52.136;4.500;2023-05-07T07:33:13;101723.75;;;21.81;67.19
72857;BME280;62742;52.136;4.500;2023-05-07T07:35:40;101729.69;;;21.88;66.56
72857;BME280;62742;52.136;4.500;2023-05-07T07:38:06;101730.19;;;22.14;65.70
72857;BME280;62742;52.136;4.500;2023-05-07T07:40:34;101732.56;;;21.83;65.41
72857;BME280;62742;52.136;4.500;2023-05-07T07:43:01;101726.22;;;22.57;65.25
72857;BME280;62742;52.136;4.500;2023-05-07T07:45:27;101723.50;;;22.92;65.22
72857;BME280;62742;52.136;4.500;2023-05-07T07:47:53;101733.59;;;22.70;62.97
72857;BME280;62742;52.136;4.500;2023-05-07T07:50:20;101729.69;;;22.42;62.41
72857;BME280;62742;52.136;4.500;2023-05-07T07:52:46;101726.94;;;22.44;64.24
72857;BME280;62742;52.136;4.500;2023-05-07T07:55:12;101725.56;;;22.70;63.78
72857;BME280;62742;52.136;4.500;2023-05-07T07:57:38;101724.94;;;22.82;63.03
72857;BME280;62742;52.136;4.500;2023-05-07T08:00:08;101719.00;;;22.93;61.38
72857;BME280;62742;52.136;4.500;2023-05-07T08:02:35;101723.06;;;23.18;63.82
72857;BME280;62742;52.136;4.500;2023-05-07T08:05:01;101720.81;;;23.10;60.50
72857;BME280;62742;52.136;4.500;2023-05-07T08:07:27;101717.66;;;23.35;62.10
72857;BME280;62742;52.136;4.500;2023-05-07T08:09:53;101721.03;;;23.86;61.14
72857;BME280;62742;52.136;4.500;2023-05-07T08:12:19;101729.34;;;23.82;57.97
72857;BME280;62742;52.136;4.500;2023-05-07T08:14:46;101725.00;;;23.95;60.58
72857;BME280;62742;52.136;4.500;2023-05-07T08:17:12;101731.78;;;24.17;59.67
72857;BME280;62742;52.136;4.500;2023-05-07T08:19:42;101733.16;;;23.78;58.36
72857;BME280;62742;52.136;4.500;2023-05-07T08:22:09;101732.09;;;23.80;58.11
72857;BME280;62742;52.136;4.500;2023-05-07T08:24:36;101747.03;;;23.37;59.51
72857;BME280;62742;52.136;4.500;2023-05-07T08:27:02;101751.78;;;23.31;60.19
72857;BME280;62742;52.136;4.500;2023-05-07T08:29:28;101752.47;;;23.19;62.06
72857;BME280;62742;52.136;4.500;2023-05-07T08:31:55;101756.75;;;22.88;62.43
72857;BME280;62742;52.136;4.500;2023-05-07T08:34:21;101762.06;;;22.72;61.12
72857;BME280;62742;52.136;4.500;2023-05-07T08:36:48;101754.22;;;22.85;62.44
72857;BME280;62742;52.136;4.500;2023-05-07T08:39:15;101755.97;;;22.86;63.46
72857;BME280;62742;52.136;4.500;2023-05-07T08:41:45;101763.09;;;22.87;62.66
72857;BME280;62742;52.136;4.500;2023-05-07T08:44:12;101764.41;;;22.78;63.90
72857;BME280;62742;52.136;4.500;2023-05-07T08:46:39;101765.63;;;22.55;61.79
72857;BME280;62742;52.136;4.500;2023-05-07T08:49:08;101765.38;;;22.60;62.31
72857;BME280;62742;52.136;4.500;2023-05-07T08:51:35;101758.81;;;22.83;63.78
72857;BME280;62742;52.136;4.500;2023-05-07T08:54:02;101757.06;;;23.00;61.27
72857;BME280;62742;52.136;4.500;2023-05-07T08:56:28;101769.41;;;22.51;60.87
72857;BME280;62742;52.136;4.500;2023-05-07T08:58:54;101761.59;;;22.47;60.97
72857;BME280;62742;52.136;4.500;2023-05-07T09:01:24;101765.13;;;22.30;61.63
72857;BME280;62742;52.136;4.500;2023-05-07T09:03:50;101765.22;;;22.63;63.41
72857;BME280;62742;52.136;4.500;2023-05-07T09:06:18;101762.16;;;22.71;63.22
72857;BME280;62742;52.136;4.500;2023-05-07T09:08:51;101766.88;;;22.66;63.50
72857;BME280;62742;52.136;4.500;2023-05-07T09:11:19;101768.25;;;22.90;60.70
72857;BME280;62742;52.136;4.500;2023-05-07T09:13:53;101768.44;;;22.52;62.12
72857;BME280;62742;52.136;4.500;2023-05-07T09:16:20;101770.91;;;22.57;62.70
72857;BME280;62742;52.136;4.500;2023-05-07T09:18:48;101773.56;;;22.74;61.93
72857;BME280;62742;52.136;4.500;2023-05-07T09:21:17;101765.94;;;22.67;61.74
72857;BME280;62742;52.136;4.500;2023-05-07T09:23:44;101758.00;;;23.16;62.27
72857;BME280;62742;52.136;4.500;2023-05-07T09:26:11;101764.19;;;23.34;61.76
72857;BME280;62742;52.136;4.500;2023-05-07T09:28:38;101769.06;;;23.75;62.88
72857;BME280;62742;52.136;4.500;2023-05-07T09:31:06;101762.75;;;23.76;56.65
72857;BME280;62742;52.136;4.500;2023-05-07T09:33:32;101761.41;;;23.36;60.59
72857;BME280;62742;52.136;4.500;2023-05-07T09:36:02;101762.41;;;23.66;60.06
72857;BME280;62742;52.136;4.500;2023-05-07T09:38:33;101769.38;;;23.86;60.19
72857;BME280;62742;52.136;4.500;2023-05-07T09:41:03;101772.16;;;23.36;60.41
72857;BME280;62742;52.136;4.500;2023-05-07T09:43:33;101780.41;;;22.97;59.89
72857;BME280;62742;52.136;4.500;2023-05-07T09:46:06;101777.72;;;22.80;61.05
72857;BME280;62742;52.136;4.500;2023-05-07T09:48:43;101768.56;;;23.19;62.27
72857;BME280;62742;52.136;4.500;2023-05-07T09:51:56;101768.72;;;23.49;59.64
72857;BME280;62742;52.136;4.500;2023-05-07T09:54:04;101765.69;;;23.71;58.28
72857;BME280;62742;52.136;4.500;2023-05-07T09:56:30;101775.22;;;23.61;57.85
72857;BME280;62742;52.136;4.500;2023-05-07T09:59:00;101781.31;;;23.97;59.81
72857;BME280;62742;52.136;4.500;2023-05-07T10:01:29;101781.41;;;23.95;59.76
72857;BME280;62742;52.136;4.500;2023-05-07T10:03:57;101780.53;;;24.11;58.75
72857;BME280;62742;52.136;4.500;2023-05-07T10:06:24;101780.63;;;23.93;56.83
72857;BME280;62742;52.136;4.500;2023-05-07T10:08:53;101781.72;;;24.05;59.56
72857;BME280;62742;52.136;4.500;2023-05-07T10:11:22;101776.59;;;23.19;58.50
72857;BME280;62742;52.136;4.500;2023-05-07T10:13:48;101783.53;;;23.73;57.56
72857;BME280;62742;52.136;4.500;2023-05-07T10:16:18;101783.53;;;23.73;57.62
72857;BME280;62742;52.136;4.500;2023-05-07T10:18:45;101777.06;;;23.43;57.74
72857;BME280;62742;52.136;4.500;2023-05-07T10:21:16;101777.13;;;23.59;58.36
72857;BME280;62742;52.136;4.500;2023-05-07T10:23:51;101781.34;;;23.47;59.80
72857;BME280;62742;52.136;4.500;2023-05-07T10:26:22;101787.25;;;23.54;58.75
72857;BME280;62742;52.136;4.500;2023-05-07T10:28:52;101779.72;;;23.77;58.97
72857;BME280;62742;52.136;4.500;2023-05-07T10:33:59;101780.09;;;23.86;56.36
72857;BME280;62742;52.136;4.500;2023-05-07T10:36:28;101774.19;;;23.80;58.17
72857;BME280;62742;52.136;4.500;2023-05-07T10:38:55;101772.38;;;23.96;57.83
72857;BME280;62742;52.136;4.500;2023-05-07T10:41:21;101775.31;;;24.54;57.01
72857;BME280;62742;52.136;4.500;2023-05-07T10:43:47;101775.81;;;24.91;54.97
72857;BME280;62742;52.136;4.500;2023-05-07T10:46:15;101775.25;;;25.14;55.31
72857;BME280;62742;52.136;4.500;2023-05-07T10:51:27;101780.25;;;24.45;55.87
72857;BME280;62742;52.136;4.500;2023-05-07T10:56:41;101796.00;;;24.68;56.26
72857;BME280;62742;52.136;4.500;2023-05-07T11:01:58;101795.59;;;23.81;55.40
72857;BME280;62742;52.136;4.500;2023-05-07T11:04:28;101787.81;;;24.08;58.28
72857;BME280;62742;52.136;4.500;2023-05-07T11:15:04;101784.81;;;24.75;56.01
72857;BME280;62742;52.136;4.500;2023-05-07T11:17:51;101787.41;;;24.77;53.71
72857;BME280;62742;52.136;4.500;2023-05-07T11:20:19;101788.41;;;23.82;55.85
72857;BME280;62742;52.136;4.500;2023-05-07T11:22:46;101777.41;;;24.49;57.63
72857;BME280;62742;52.136;4.500;2023-05-07T11:25:19;101773.53;;;25.28;55.58
72857;BME280;62742;52.136;4.500;2023-05-07T11:27:46;101788.78;;;25.70;53.55
72857;BME280;62742;52.136;4.500;2023-05-07T11:30:16;101781.81;;;25.39;53.79
72857;BME280;62742;52.136;4.500;2023-05-07T11:32:46;101784.78;;;25.49;54.00
72857;BME280;62742;52.136;4.500;2023-05-07T11:35:13;101790.69;;;26.24;52.84
72857;BME280;62742;52.136;4.500;2023-05-07T11:37:42;101792.69;;;26.61;50.16
72857;BME280;62742;52.136;4.500;2023-05-07T11:40:12;101785.66;;;26.45;50.20
72857;BME280;62742;52.136;4.500;2023-05-07T11:42:39;101791.28;;;26.15;48.94
72857;BME280;62742;52.136;4.500;2023-05-07T11:45:09;101789.19;;;25.64;51.96
72857;BME280;62742;52.136;4.500;2023-05-07T11:47:36;101793.28;;;25.99;51.54
72857;BME280;62742;52.136;4.500;2023-05-07T11:50:03;101787.81;;;25.57;48.70
72857;BME280;62742;52.136;4.500;2023-05-07T11:52:33;101793.41;;;26.10;49.62
72857;BME280;62742;52.136;4.500;2023-05-07T11:55:01;101793.16;;;26.27;46.67
72857;BME280;62742;52.136;4.500;2023-05-07T11:57:29;101784.69;;;26.74;47.24
72857;BME280;62742;52.136;4.500;2023-05-07T11:59:56;101792.16;;;26.96;46.39
72857;BME280;62742;52.136;4.500;2023-05-07T12:02:23;101785.75;;;27.22;48.52
72857;BME280;62742;52.136;4.500;2023-05-07T12:04:53;101797.53;;;25.16;46.96
72857;BME280;62742;52.136;4.500;2023-05-07T12:07:20;101788.38;;;25.62;48.56
72857;BME280;62742;52.136;4.500;2023-05-07T12:09:47;101793.63;;;25.92;49.43
72857;BME280;62742;52.136;4.500;2023-05-07T12:12:14;101797.50;;;25.74;49.81
72857;BME280;62742;52.136;4.500;2023-05-07T12:14:41;101807.84;;;24.79;52.43
72857;BME280;62742;52.136;4.500;2023-05-07T12:17:10;101810.72;;;24.30;54.12
72857;BME280;62742;52.136;4.500;2023-05-07T12:19:38;101802.91;;;23.62;56.11
72857;BME280;62742;52.136;4.500;2023-05-07T12:22:07;101806.03;;;23.03;57.31
72857;BME280;62742;52.136;4.500;2023-05-07T12:24:43;101812.47;;;22.99;59.33
72857;BME280;62742;52.136;4.500;2023-05-07T12:27:13;101800.41;;;23.25;58.26
72857;BME280;62742;52.136;4.500;2023-05-07T12:29:47;101803.72;;;23.30;57.72
72857;BME280;62742;52.136;4.500;2023-05-07T12:32:24;101809.09;;;23.30;58.59
72857;BME280;62742;52.136;4.500;2023-05-07T12:34:51;101821.59;;;22.62;60.15
72857;BME280;62742;52.136;4.500;2023-05-07T12:37:22;101817.31;;;22.75;60.92
72857;BME280;62742;52.136;4.500;2023-05-07T12:39:49;101823.69;;;22.72;60.24
72857;BME280;62742;52.136;4.500;2023-05-07T12:42:40;101825.91;;;22.82;61.31
72857;BME280;62742;52.136;4.500;2023-05-07T12:45:11;101828.81;;;22.59;62.74
72857;BME280;62742;52.136;4.500;2023-05-07T12:47:45;101837.16;;;22.53;63.28
72857;BME280;62742;52.136;4.500;2023-05-07T12:50:15;101831.56;;;22.58;60.99
72857;BME280;62742;52.136;4.500;2023-05-07T12:52:45;101838.00;;;22.36;63.11
72857;BME280;62742;52.136;4.500;2023-05-07T12:55:14;101841.75;;;22.51;63.45
72857;BME280;62742;52.136;4.500;2023-05-07T12:57:41;101844.88;;;22.04;64.19
72857;BME280;62742;52.136;4.500;2023-05-07T13:00:11;101852.84;;;21.87;66.20
72857;BME280;62742;52.136;4.500;2023-05-07T13:02:39;101849.81;;;21.75;66.19
72857;BME280;62742;52.136;4.500;2023-05-07T13:05:06;101858.56;;;21.79;66.85
72857;BME280;62742;52.136;4.500;2023-05-07T13:07:33;101857.25;;;21.88;66.70
72857;BME280;62742;52.136;4.500;2023-05-07T13:10:00;101865.06;;;21.92;67.89